KLM642 KJFK-EHAM
Flight info
| Callsign | KLM642 |
|---|---|
| Flight time | N/A |
| Altitude | 35000 |
| Route | MERIT DCT HFD DCT PUT DCT WITCH DCT ALLEX N431B ELSIR/M084F350 DCT 50N050W 51N040W 53N030W 54N020W DCT DOGAL/N0483F350 DCT BEXET DCT ULTAG DCT BOFUM Q37 MALUD UL975 WAL DCT DOLAS L603 LAMSO |
| Aircraft | B77W/H-SDE1E2E3FGHIJ2J3J4J5M1RWXY/LB1D1 |
Departure
| Time | 2026-05-09 17:10 |
|---|---|
| Airport | John F. Kennedy International Airport (KJFK) |
Arrival
| Time | N/A |
|---|---|
| Airport | Amsterdam Airport Schiphol (EHAM) |
| Time | Latitude | Longitude | Altitude | Speed | Heading |
|---|---|---|---|---|---|
| 2026-05-09 16:43 | 40.63784 | -73.78005 | 28 ft | 0 kts | 263° |
| 2026-05-09 16:58 | 40.63784 | -73.78003 | 28 ft | 1 kts | 264° |
| 2026-05-09 16:59 | 40.63786 | -73.77983 | 28 ft | 2 kts | 264° |
| 2026-05-09 16:59 | 40.63787 | -73.77970 | 28 ft | 1 kts | 264° |
| 2026-05-09 16:59 | 40.63789 | -73.77951 | 28 ft | 2 kts | 244° |
| 2026-05-09 16:59 | 40.63798 | -73.77935 | 28 ft | 2 kts | 219° |
| 2026-05-09 17:00 | 40.63811 | -73.77925 | 28 ft | 2 kts | 198° |
| 2026-05-09 17:00 | 40.63826 | -73.77922 | 28 ft | 1 kts | 176° |
| 2026-05-09 17:00 | 40.63832 | -73.77923 | 28 ft | 0 kts | 172° |
| 2026-05-09 17:02 | 40.63831 | -73.77923 | 28 ft | 0 kts | 172° |
| 2026-05-09 17:02 | 40.63818 | -73.77921 | 28 ft | 3 kts | 172° |
| 2026-05-09 17:03 | 40.63786 | -73.77914 | 28 ft | 6 kts | 172° |
| 2026-05-09 17:04 | 40.63755 | -73.77514 | 28 ft | 18 kts | 31° |
| 2026-05-09 17:05 | 40.63873 | -73.77421 | 28 ft | 20 kts | 30° |
| 2026-05-09 17:05 | 40.64000 | -73.77322 | 28 ft | 21 kts | 30° |
| 2026-05-09 17:05 | 40.64134 | -73.77221 | 28 ft | 22 kts | 30° |
| 2026-05-09 17:05 | 40.64271 | -73.77112 | 28 ft | 21 kts | 32° |
| 2026-05-09 17:06 | 40.64384 | -73.77021 | 28 ft | 17 kts | 26° |
| 2026-05-09 17:06 | 40.64483 | -73.76991 | 28 ft | 11 kts | 5° |
| 2026-05-09 17:06 | 40.64537 | -73.76977 | 28 ft | 3 kts | 25° |
| 2026-05-09 17:06 | 40.64567 | -73.76955 | 28 ft | 6 kts | 30° |
| 2026-05-09 17:07 | 40.64616 | -73.76916 | 28 ft | 9 kts | 31° |
| 2026-05-09 17:07 | 40.64659 | -73.76881 | 28 ft | 11 kts | 32° |
| 2026-05-09 17:07 | 40.64780 | -73.76777 | 28 ft | 19 kts | 34° |
| 2026-05-09 17:07 | 40.64907 | -73.76672 | 28 ft | 23 kts | 31° |
| 2026-05-09 17:08 | 40.65054 | -73.76554 | 28 ft | 22 kts | 31° |
| 2026-05-09 17:08 | 40.65084 | -73.76414 | 28 ft | 7 kts | 115° |
| 2026-05-09 17:08 | 40.65051 | -73.76356 | 28 ft | 8 kts | 154° |
| 2026-05-09 17:09 | 40.64988 | -73.76379 | 28 ft | 11 kts | 212° |
| 2026-05-09 17:09 | 40.64949 | -73.76410 | 28 ft | 14 kts | 211° |
| 2026-05-09 17:09 | 40.64583 | -73.76697 | 28 ft | 107 kts | 211° |
| 2026-05-09 17:09 | 40.63697 | -73.77389 | 41 ft | 187 kts | 210° |
| 2026-05-09 17:10 | 40.62446 | -73.78382 | 532 ft | 228 kts | 209° |
| 2026-05-09 17:10 | 40.61051 | -73.79427 | 1840 ft | 232 kts | 208° |
| 2026-05-09 17:10 | 40.59650 | -73.80417 | 2831 ft | 231 kts | 206° |
| 2026-05-09 17:10 | 40.58270 | -73.81288 | 4028 ft | 215 kts | 203° |
| 2026-05-09 17:11 | 40.56972 | -73.81963 | 5039 ft | 204 kts | 198° |
| 2026-05-09 17:11 | 40.55530 | -73.82481 | 5428 ft | 225 kts | 191° |
| 2026-05-09 17:11 | 40.53944 | -73.82662 | 5994 ft | 237 kts | 174° |
| 2026-05-09 17:11 | 40.52395 | -73.81808 | 6633 ft | 250 kts | 144° |
| 2026-05-09 17:12 | 40.51313 | -73.79984 | 7215 ft | 267 kts | 118° |
| 2026-05-09 17:12 | 40.50968 | -73.77525 | 7790 ft | 284 kts | 91° |
| 2026-05-09 17:12 | 40.51500 | -73.75006 | 8345 ft | 296 kts | 63° |
| 2026-05-09 17:12 | 40.52837 | -73.72922 | 8911 ft | 302 kts | 40° |
| 2026-05-09 17:13 | 40.54485 | -73.71220 | 9483 ft | 305 kts | 37° |
| 2026-05-09 17:13 | 40.56198 | -73.69512 | 10061 ft | 307 kts | 37° |
| 2026-05-09 17:13 | 40.57885 | -73.67841 | 10626 ft | 310 kts | 37° |
| 2026-05-09 17:13 | 40.59626 | -73.66097 | 10969 ft | 318 kts | 37° |
| 2026-05-09 17:14 | 40.61447 | -73.64261 | 11297 ft | 340 kts | 36° |
| 2026-05-09 17:14 | 40.63499 | -73.62604 | 11786 ft | 355 kts | 27° |
| 2026-05-09 17:14 | 40.65743 | -73.61082 | 12326 ft | 371 kts | 24° |
| 2026-05-09 17:14 | 40.68084 | -73.59571 | 12797 ft | 388 kts | 24° |
| 2026-05-09 17:15 | 40.70556 | -73.57969 | 13307 ft | 405 kts | 24° |
| 2026-05-09 17:15 | 40.73120 | -73.56314 | 13910 ft | 417 kts | 24° |
| 2026-05-09 17:15 | 40.75771 | -73.54594 | 14549 ft | 428 kts | 23° |
| 2026-05-09 17:15 | 40.78463 | -73.52847 | 15365 ft | 433 kts | 23° |
| 2026-05-09 17:16 | 40.81165 | -73.51083 | 16253 ft | 436 kts | 23° |
| 2026-05-09 17:17 | 41.00878 | -73.38272 | 21439 ft | 471 kts | 21° |
| 2026-05-09 17:18 | 41.03856 | -73.36328 | 22077 ft | 477 kts | 21° |
| 2026-05-09 17:18 | 41.06826 | -73.34387 | 22742 ft | 481 kts | 21° |
| 2026-05-09 17:18 | 41.09855 | -73.32406 | 23368 ft | 486 kts | 21° |
| 2026-05-09 17:18 | 41.12917 | -73.30400 | 23922 ft | 493 kts | 21° |
| 2026-05-09 17:19 | 41.16015 | -73.28370 | 24446 ft | 500 kts | 21° |
| 2026-05-09 17:19 | 41.19165 | -73.26302 | 25036 ft | 506 kts | 21° |
| 2026-05-09 17:19 | 41.22294 | -73.24245 | 25635 ft | 510 kts | 21° |
| 2026-05-09 17:19 | 41.25503 | -73.22131 | 26233 ft | 515 kts | 21° |
| 2026-05-09 17:20 | 41.28733 | -73.20003 | 26807 ft | 519 kts | 21° |
| 2026-05-09 17:20 | 41.31950 | -73.17866 | 27369 ft | 525 kts | 23° |
| 2026-05-09 17:20 | 41.35089 | -73.15286 | 27949 ft | 536 kts | 32° |
| 2026-05-09 17:20 | 41.37973 | -73.12089 | 28522 ft | 546 kts | 40° |
| 2026-05-09 17:21 | 41.40535 | -73.08322 | 29090 ft | 554 kts | 49° |
| 2026-05-09 17:21 | 41.42699 | -73.04055 | 29777 ft | 558 kts | 57° |
| 2026-05-09 17:21 | 41.44649 | -72.99586 | 30611 ft | 555 kts | 58° |
| 2026-05-09 17:21 | 41.46532 | -72.95218 | 31423 ft | 552 kts | 58° |
| 2026-05-09 17:22 | 41.48450 | -72.90784 | 32163 ft | 550 kts | 58° |
| 2026-05-09 17:22 | 41.50366 | -72.86365 | 32866 ft | 549 kts | 58° |
| 2026-05-09 17:22 | 41.52251 | -72.82028 | 33586 ft | 547 kts | 57° |
| 2026-05-09 17:22 | 41.54149 | -72.77666 | 34332 ft | 545 kts | 57° |
| 2026-05-09 17:23 | 41.56073 | -72.73244 | 34999 ft | 544 kts | 57° |
| 2026-05-09 17:23 | 41.58011 | -72.68793 | 35098 ft | 548 kts | 57° |
| 2026-05-09 17:23 | 41.61830 | -72.60010 | 35074 ft | 538 kts | 56° |
| 2026-05-09 17:25 | 41.71360 | -72.38640 | 34967 ft | 536 kts | 55° |
| 2026-05-09 17:25 | 41.73279 | -72.34377 | 34971 ft | 535 kts | 56° |
| 2026-05-09 17:25 | 41.77130 | -72.25800 | 34970 ft | 534 kts | 56° |
| 2026-05-09 17:26 | 41.80939 | -72.17288 | 34985 ft | 533 kts | 55° |
| 2026-05-09 17:26 | 41.84742 | -72.08765 | 34995 ft | 532 kts | 55° |
| 2026-05-09 17:27 | 41.88544 | -72.00217 | 35000 ft | 532 kts | 55° |
| 2026-05-09 17:27 | 41.92298 | -71.91752 | 34999 ft | 531 kts | 55° |
| 2026-05-09 17:28 | 41.96368 | -71.83549 | 34996 ft | 524 kts | 44° |
| 2026-05-09 17:28 | 42.01465 | -71.76636 | 34999 ft | 520 kts | 38° |
| 2026-05-09 17:29 | 42.06655 | -71.69869 | 35003 ft | 519 kts | 38° |
| 2026-05-09 17:29 | 42.11859 | -71.63060 | 35004 ft | 519 kts | 38° |
| 2026-05-09 17:30 | 42.17072 | -71.56216 | 35002 ft | 519 kts | 38° |
| 2026-05-09 17:30 | 42.22233 | -71.49421 | 35001 ft | 520 kts | 38° |
| 2026-05-09 17:31 | 42.27380 | -71.42625 | 35001 ft | 520 kts | 38° |
| 2026-05-09 17:32 | 42.40272 | -71.25529 | 34988 ft | 521 kts | 39° |
| 2026-05-09 17:33 | 42.45454 | -71.18626 | 34991 ft | 521 kts | 39° |
| 2026-05-09 17:33 | 42.50585 | -71.11777 | 34996 ft | 521 kts | 39° |
| 2026-05-09 17:34 | 42.55747 | -71.04868 | 35002 ft | 522 kts | 39° |
| 2026-05-09 17:35 | 42.70554 | -70.83259 | 35030 ft | 532 kts | 52° |
| 2026-05-09 17:35 | 42.72568 | -70.79054 | 35029 ft | 533 kts | 52° |
| 2026-05-09 17:36 | 42.76598 | -70.70570 | 35033 ft | 532 kts | 52° |
| 2026-05-09 17:36 | 42.80605 | -70.62108 | 35034 ft | 533 kts | 52° |
| 2026-05-09 17:37 | 42.84609 | -70.53629 | 35035 ft | 533 kts | 52° |
| 2026-05-09 17:37 | 42.88612 | -70.45126 | 35037 ft | 533 kts | 52° |
| 2026-05-09 17:38 | 42.92608 | -70.36613 | 35040 ft | 532 kts | 52° |
| 2026-05-09 17:39 | 42.98590 | -70.23827 | 35028 ft | 534 kts | 52° |
| 2026-05-09 17:39 | 43.02562 | -70.15307 | 35030 ft | 534 kts | 52° |
| 2026-05-09 17:40 | 43.06580 | -70.06660 | 35032 ft | 535 kts | 52° |
| 2026-05-09 17:40 | 43.10572 | -69.98047 | 35041 ft | 535 kts | 52° |
| 2026-05-09 17:41 | 43.14555 | -69.89425 | 35053 ft | 535 kts | 52° |
| 2026-05-09 17:41 | 43.18515 | -69.80830 | 35056 ft | 535 kts | 52° |
| 2026-05-09 17:42 | 43.22459 | -69.72245 | 35057 ft | 536 kts | 52° |
| 2026-05-09 17:42 | 43.26415 | -69.63608 | 35065 ft | 536 kts | 51° |
| 2026-05-09 17:43 | 43.30385 | -69.54913 | 35071 ft | 536 kts | 51° |
| 2026-05-09 17:43 | 43.34331 | -69.46247 | 35074 ft | 536 kts | 51° |
| 2026-05-09 17:44 | 43.38284 | -69.37540 | 35075 ft | 536 kts | 51° |
| 2026-05-09 17:44 | 43.42216 | -69.28854 | 35060 ft | 537 kts | 52° |
| 2026-05-09 17:45 | 43.46158 | -69.20119 | 35061 ft | 537 kts | 52° |
| 2026-05-09 17:45 | 43.50087 | -69.11388 | 35064 ft | 537 kts | 52° |
| 2026-05-09 17:46 | 43.54018 | -69.02621 | 35067 ft | 537 kts | 52° |
| 2026-05-09 17:46 | 43.57935 | -68.93864 | 35072 ft | 537 kts | 52° |
| 2026-05-09 17:47 | 43.61846 | -68.85094 | 35075 ft | 537 kts | 51° |
| 2026-05-09 17:47 | 43.65738 | -68.76340 | 35076 ft | 537 kts | 51° |
| 2026-05-09 17:48 | 43.69613 | -68.67595 | 35078 ft | 537 kts | 51° |
| 2026-05-09 17:48 | 43.73507 | -68.58781 | 35080 ft | 536 kts | 51° |
| 2026-05-09 17:49 | 43.77381 | -68.49989 | 35082 ft | 537 kts | 51° |
| 2026-05-09 17:49 | 43.81247 | -68.41188 | 35083 ft | 538 kts | 51° |
| 2026-05-09 17:50 | 43.85125 | -68.32333 | 35071 ft | 538 kts | 51° |
| 2026-05-09 17:50 | 43.90962 | -68.18950 | 35070 ft | 540 kts | 51° |
| 2026-05-09 17:51 | 43.94840 | -68.10024 | 35075 ft | 540 kts | 51° |
| 2026-05-09 17:51 | 43.98722 | -68.01061 | 35076 ft | 541 kts | 51° |
| 2026-05-09 17:52 | 44.02580 | -67.92126 | 35076 ft | 541 kts | 51° |
| 2026-05-09 17:52 | 44.06436 | -67.83169 | 35076 ft | 541 kts | 51° |
| 2026-05-09 17:53 | 44.10293 | -67.74181 | 35074 ft | 541 kts | 51° |
| 2026-05-09 17:53 | 44.14157 | -67.65147 | 35080 ft | 540 kts | 51° |
| 2026-05-09 17:54 | 44.17995 | -67.56146 | 35079 ft | 540 kts | 51° |
| 2026-05-09 17:54 | 44.21804 | -67.47185 | 35080 ft | 539 kts | 51° |
| 2026-05-09 17:55 | 44.25601 | -67.38225 | 35079 ft | 538 kts | 52° |
| 2026-05-09 17:55 | 44.29415 | -67.29199 | 35065 ft | 539 kts | 53° |
| 2026-05-09 17:56 | 44.33204 | -67.20201 | 35065 ft | 538 kts | 53° |
| 2026-05-09 17:57 | 44.38847 | -67.06746 | 35071 ft | 537 kts | 54° |
| 2026-05-09 17:57 | 44.42609 | -66.97778 | 35075 ft | 536 kts | 53° |
| 2026-05-09 17:58 | 44.46520 | -66.88925 | 35079 ft | 535 kts | 52° |
| 2026-05-09 17:58 | 44.50426 | -66.80083 | 35077 ft | 535 kts | 53° |
| 2026-05-09 17:59 | 44.54318 | -66.71230 | 35076 ft | 535 kts | 53° |
| 2026-05-09 17:59 | 44.58217 | -66.62324 | 35080 ft | 535 kts | 53° |
| 2026-05-09 18:00 | 44.62087 | -66.53453 | 35081 ft | 535 kts | 53° |
| 2026-05-09 18:00 | 44.65934 | -66.44601 | 35085 ft | 535 kts | 54° |
| 2026-05-09 18:01 | 44.69808 | -66.35661 | 35086 ft | 535 kts | 54° |
| 2026-05-09 18:01 | 44.73671 | -66.26713 | 35073 ft | 535 kts | 55° |
| 2026-05-09 18:02 | 44.77502 | -66.17813 | 35071 ft | 535 kts | 55° |
| 2026-05-09 18:02 | 44.81339 | -66.08872 | 35071 ft | 535 kts | 55° |
| 2026-05-09 18:03 | 44.85151 | -65.99962 | 35071 ft | 535 kts | 55° |
| 2026-05-09 18:03 | 44.89005 | -65.90922 | 35063 ft | 534 kts | 55° |
| 2026-05-09 18:04 | 44.92822 | -65.81942 | 35064 ft | 534 kts | 55° |
| 2026-05-09 18:04 | 44.96622 | -65.72974 | 35067 ft | 532 kts | 56° |
| 2026-05-09 18:05 | 45.00374 | -65.64090 | 35069 ft | 531 kts | 56° |
| 2026-05-09 18:05 | 45.04143 | -65.55137 | 35077 ft | 530 kts | 56° |
| 2026-05-09 18:06 | 45.07897 | -65.46193 | 35078 ft | 529 kts | 56° |
| 2026-05-09 18:06 | 45.11643 | -65.37239 | 35078 ft | 528 kts | 56° |
| 2026-05-09 18:07 | 45.15382 | -65.28275 | 35068 ft | 528 kts | 57° |
| 2026-05-09 18:07 | 45.19089 | -65.19358 | 35069 ft | 527 kts | 57° |
| 2026-05-09 18:08 | 45.22796 | -65.10413 | 35070 ft | 526 kts | 57° |
| 2026-05-09 18:08 | 45.26473 | -65.01510 | 35071 ft | 526 kts | 57° |
| 2026-05-09 18:09 | 45.30156 | -64.92567 | 35072 ft | 526 kts | 57° |
| 2026-05-09 18:09 | 45.33834 | -64.83604 | 35073 ft | 525 kts | 57° |
| 2026-05-09 18:10 | 45.37499 | -64.74648 | 35073 ft | 525 kts | 58° |
| 2026-05-09 18:10 | 45.41150 | -64.65696 | 35071 ft | 525 kts | 58° |
| 2026-05-09 18:11 | 45.44782 | -64.56761 | 35069 ft | 524 kts | 58° |
| 2026-05-09 18:11 | 45.48418 | -64.47787 | 35067 ft | 524 kts | 58° |
| 2026-05-09 18:12 | 45.52019 | -64.38872 | 35066 ft | 523 kts | 58° |
| 2026-05-09 18:12 | 45.55647 | -64.29861 | 35057 ft | 522 kts | 59° |
| 2026-05-09 18:13 | 45.59234 | -64.20923 | 35054 ft | 522 kts | 59° |
| 2026-05-09 18:13 | 45.62821 | -64.11955 | 35054 ft | 521 kts | 59° |
| 2026-05-09 18:14 | 45.66409 | -64.02957 | 35054 ft | 520 kts | 59° |
| 2026-05-09 18:14 | 45.69976 | -63.93984 | 35055 ft | 520 kts | 59° |
| 2026-05-09 18:15 | 45.73541 | -63.84983 | 35057 ft | 520 kts | 59° |
| 2026-05-09 18:15 | 45.77087 | -63.76001 | 35059 ft | 520 kts | 59° |
| 2026-05-09 18:16 | 45.80626 | -63.67010 | 35061 ft | 520 kts | 59° |
| 2026-05-09 18:16 | 45.84161 | -63.58000 | 35065 ft | 520 kts | 59° |
| 2026-05-09 18:17 | 45.87694 | -63.48963 | 35067 ft | 520 kts | 59° |
| 2026-05-09 18:17 | 45.91213 | -63.39934 | 35067 ft | 520 kts | 59° |
| 2026-05-09 18:18 | 45.94740 | -63.30854 | 35061 ft | 520 kts | 60° |
| 2026-05-09 18:18 | 45.98248 | -63.21793 | 35059 ft | 521 kts | 60° |
| 2026-05-09 18:19 | 46.01746 | -63.12728 | 35061 ft | 521 kts | 60° |
| 2026-05-09 18:19 | 46.06986 | -62.99091 | 35099 ft | 521 kts | 60° |
| 2026-05-09 18:20 | 46.10495 | -62.89923 | 35076 ft | 521 kts | 60° |
| 2026-05-09 18:20 | 46.13974 | -62.80801 | 35070 ft | 522 kts | 60° |
| 2026-05-09 18:21 | 46.17443 | -62.71675 | 35070 ft | 523 kts | 60° |
| 2026-05-09 18:21 | 46.20923 | -62.62490 | 35071 ft | 522 kts | 60° |
| 2026-05-09 18:22 | 46.24397 | -62.53287 | 35072 ft | 522 kts | 60° |
| 2026-05-09 18:22 | 46.27851 | -62.44107 | 35074 ft | 522 kts | 60° |
| 2026-05-09 18:23 | 46.31291 | -62.34937 | 35077 ft | 522 kts | 61° |
| 2026-05-09 18:23 | 46.34750 | -62.25680 | 35069 ft | 522 kts | 61° |
| 2026-05-09 18:24 | 46.38207 | -62.16399 | 35071 ft | 521 kts | 61° |
| 2026-05-09 18:25 | 46.43335 | -62.02571 | 35073 ft | 521 kts | 61° |
| 2026-05-09 18:25 | 46.46776 | -61.93251 | 35074 ft | 521 kts | 61° |
| 2026-05-09 18:26 | 46.50174 | -61.84017 | 35074 ft | 521 kts | 61° |
| 2026-05-09 18:26 | 46.53593 | -61.74695 | 35068 ft | 522 kts | 61° |
| 2026-05-09 18:27 | 46.56989 | -61.65403 | 35069 ft | 522 kts | 61° |
| 2026-05-09 18:27 | 46.60365 | -61.56133 | 35073 ft | 522 kts | 61° |
| 2026-05-09 18:28 | 46.63759 | -61.46783 | 35075 ft | 521 kts | 61° |
| 2026-05-09 18:28 | 46.67115 | -61.37501 | 35075 ft | 521 kts | 61° |
| 2026-05-09 18:29 | 46.70474 | -61.28182 | 35071 ft | 522 kts | 62° |
| 2026-05-09 18:29 | 46.73830 | -61.18838 | 35072 ft | 522 kts | 62° |
| 2026-05-09 18:30 | 46.77190 | -61.09450 | 35074 ft | 522 kts | 62° |
| 2026-05-09 18:30 | 46.80510 | -61.00140 | 35076 ft | 522 kts | 62° |
| 2026-05-09 18:31 | 46.83855 | -60.90727 | 35074 ft | 522 kts | 62° |
| 2026-05-09 18:31 | 46.87179 | -60.81340 | 35070 ft | 522 kts | 62° |
| 2026-05-09 18:32 | 46.90494 | -60.71946 | 35068 ft | 521 kts | 62° |
| 2026-05-09 18:32 | 46.93795 | -60.62555 | 35074 ft | 522 kts | 62° |
| 2026-05-09 18:33 | 46.97106 | -60.53106 | 35082 ft | 522 kts | 62° |
| 2026-05-09 18:33 | 47.00404 | -60.43659 | 35092 ft | 522 kts | 62° |
| 2026-05-09 18:34 | 47.03688 | -60.34218 | 35105 ft | 522 kts | 63° |
| 2026-05-09 18:34 | 47.06966 | -60.24762 | 35105 ft | 521 kts | 63° |
| 2026-05-09 18:35 | 47.10225 | -60.15323 | 35105 ft | 521 kts | 63° |
| 2026-05-09 18:35 | 47.13495 | -60.05822 | 35092 ft | 521 kts | 63° |
| 2026-05-09 18:36 | 47.16727 | -59.96395 | 35077 ft | 521 kts | 63° |
| 2026-05-09 18:36 | 47.19994 | -59.86829 | 35065 ft | 521 kts | 63° |
| 2026-05-09 18:37 | 47.23243 | -59.77284 | 35067 ft | 521 kts | 64° |
| 2026-05-09 18:37 | 47.26465 | -59.67785 | 35076 ft | 521 kts | 64° |
| 2026-05-09 18:38 | 47.29664 | -59.58318 | 35077 ft | 521 kts | 64° |
| 2026-05-09 18:38 | 47.32876 | -59.48774 | 35077 ft | 521 kts | 64° |
| 2026-05-09 18:40 | 47.45650 | -59.10477 | 35072 ft | 520 kts | 65° |
| 2026-05-09 18:41 | 47.48848 | -59.00802 | 35072 ft | 521 kts | 65° |
| 2026-05-09 18:41 | 47.52005 | -58.91209 | 35067 ft | 521 kts | 65° |
| 2026-05-09 18:42 | 47.55138 | -58.81659 | 35059 ft | 520 kts | 65° |
| 2026-05-09 18:42 | 47.58290 | -58.72013 | 35054 ft | 520 kts | 65° |
| 2026-05-09 18:43 | 47.61422 | -58.62392 | 35053 ft | 520 kts | 65° |
| 2026-05-09 18:43 | 47.64547 | -58.52755 | 35052 ft | 520 kts | 65° |
| 2026-05-09 18:44 | 47.67669 | -58.43093 | 35053 ft | 520 kts | 65° |
| 2026-05-09 18:44 | 47.70785 | -58.33413 | 35051 ft | 521 kts | 66° |
| 2026-05-09 18:45 | 47.73894 | -58.23716 | 35048 ft | 521 kts | 66° |
| 2026-05-09 18:45 | 47.76983 | -58.14045 | 35048 ft | 520 kts | 66° |
| 2026-05-09 18:46 | 47.80081 | -58.04311 | 35049 ft | 520 kts | 66° |
| 2026-05-09 18:46 | 47.83138 | -57.94669 | 35050 ft | 520 kts | 66° |
| 2026-05-09 18:47 | 47.86216 | -57.84921 | 35051 ft | 520 kts | 66° |
| 2026-05-09 18:47 | 47.89259 | -57.75245 | 35053 ft | 520 kts | 66° |
| 2026-05-09 18:48 | 47.92303 | -57.65527 | 35054 ft | 519 kts | 66° |
| 2026-05-09 18:48 | 47.95340 | -57.55802 | 35055 ft | 519 kts | 66° |
| 2026-05-09 18:49 | 47.98382 | -57.46016 | 35056 ft | 520 kts | 66° |
| 2026-05-09 18:49 | 48.01406 | -57.36250 | 35056 ft | 520 kts | 66° |
| 2026-05-09 18:50 | 48.04430 | -57.26447 | 35050 ft | 520 kts | 68° |
| 2026-05-09 18:50 | 48.07429 | -57.16686 | 35045 ft | 519 kts | 68° |
| 2026-05-09 18:51 | 48.10439 | -57.06852 | 35041 ft | 519 kts | 68° |
| 2026-05-09 18:51 | 48.13423 | -56.97063 | 35037 ft | 519 kts | 68° |
| 2026-05-09 18:52 | 48.16406 | -56.87239 | 35038 ft | 519 kts | 68° |
| 2026-05-09 18:52 | 48.19387 | -56.77384 | 35040 ft | 519 kts | 69° |
| 2026-05-09 18:53 | 48.22339 | -56.67587 | 35042 ft | 519 kts | 69° |
| 2026-05-09 18:53 | 48.25291 | -56.57748 | 35045 ft | 518 kts | 69° |
| 2026-05-09 18:54 | 48.28214 | -56.47968 | 35048 ft | 518 kts | 69° |
| 2026-05-09 18:54 | 48.31161 | -56.38064 | 35049 ft | 519 kts | 69° |
| 2026-05-09 18:55 | 48.34105 | -56.28133 | 35045 ft | 519 kts | 70° |
| 2026-05-09 18:55 | 48.37018 | -56.18264 | 35045 ft | 519 kts | 70° |
| 2026-05-09 18:56 | 48.39928 | -56.08368 | 35045 ft | 519 kts | 70° |
| 2026-05-09 18:56 | 48.42847 | -55.98403 | 35037 ft | 519 kts | 70° |
| 2026-05-09 18:57 | 48.45754 | -55.88438 | 35027 ft | 519 kts | 70° |
| 2026-05-09 18:57 | 48.48628 | -55.78545 | 35023 ft | 518 kts | 70° |
| 2026-05-09 18:58 | 48.51519 | -55.68550 | 35018 ft | 518 kts | 70° |
| 2026-05-09 18:58 | 48.54371 | -55.58654 | 35019 ft | 518 kts | 70° |
| 2026-05-09 18:59 | 48.57229 | -55.48692 | 35024 ft | 519 kts | 71° |
| 2026-05-09 18:59 | 48.60066 | -55.38762 | 35026 ft | 519 kts | 71° |
| 2026-05-09 19:00 | 48.62920 | -55.28731 | 35025 ft | 518 kts | 72° |
| 2026-05-09 19:00 | 48.67166 | -55.13730 | 35032 ft | 518 kts | 72° |
| 2026-05-09 19:01 | 48.69975 | -55.03756 | 35040 ft | 517 kts | 72° |
| 2026-05-09 19:01 | 48.72789 | -54.93720 | 35043 ft | 517 kts | 73° |
| 2026-05-09 19:02 | 48.75599 | -54.83658 | 35045 ft | 517 kts | 73° |
| 2026-05-09 19:02 | 48.78388 | -54.73627 | 35048 ft | 517 kts | 73° |
| 2026-05-09 19:03 | 48.81176 | -54.63559 | 35050 ft | 516 kts | 73° |
| 2026-05-09 19:03 | 48.83945 | -54.53514 | 35053 ft | 517 kts | 73° |
| 2026-05-09 19:04 | 48.86707 | -54.43453 | 35056 ft | 517 kts | 73° |
| 2026-05-09 19:04 | 48.89472 | -54.33336 | 35058 ft | 516 kts | 75° |
| 2026-05-09 19:05 | 48.92202 | -54.23306 | 35058 ft | 515 kts | 75° |
| 2026-05-09 19:05 | 48.94942 | -54.13196 | 35058 ft | 515 kts | 75° |
| 2026-05-09 19:06 | 48.97659 | -54.03128 | 35055 ft | 515 kts | 75° |
| 2026-05-09 19:06 | 49.00356 | -53.93088 | 35051 ft | 515 kts | 75° |
| 2026-05-09 19:07 | 49.03081 | -53.82900 | 35068 ft | 515 kts | 76° |
| 2026-05-09 19:07 | 49.05779 | -53.72772 | 35070 ft | 515 kts | 76° |
| 2026-05-09 19:08 | 49.08469 | -53.62631 | 35054 ft | 514 kts | 77° |
| 2026-05-09 19:08 | 49.11146 | -53.52490 | 35030 ft | 514 kts | 77° |
| 2026-05-09 19:09 | 49.13810 | -53.42356 | 35024 ft | 514 kts | 77° |
| 2026-05-09 19:09 | 49.16460 | -53.32226 | 35012 ft | 514 kts | 78° |
| 2026-05-09 19:10 | 49.19097 | -53.22107 | 35016 ft | 513 kts | 78° |
| 2026-05-09 19:10 | 49.21728 | -53.11961 | 35036 ft | 514 kts | 78° |
| 2026-05-09 19:11 | 49.24334 | -53.01870 | 35051 ft | 514 kts | 78° |
| 2026-05-09 19:11 | 49.26958 | -52.91665 | 35052 ft | 514 kts | 78° |
| 2026-05-09 19:12 | 49.29575 | -52.81440 | 35054 ft | 514 kts | 79° |
| 2026-05-09 19:12 | 49.32171 | -52.71253 | 35055 ft | 513 kts | 79° |
| 2026-05-09 19:13 | 49.34763 | -52.61035 | 35043 ft | 513 kts | 79° |
| 2026-05-09 19:13 | 49.37322 | -52.50900 | 35015 ft | 512 kts | 79° |
| 2026-05-09 19:14 | 49.39878 | -52.40735 | 35013 ft | 511 kts | 79° |
| 2026-05-09 19:14 | 49.42426 | -52.30554 | 35044 ft | 510 kts | 81° |
| 2026-05-09 19:15 | 49.44942 | -52.20452 | 35064 ft | 510 kts | 81° |
| 2026-05-09 19:15 | 49.47471 | -52.10251 | 35065 ft | 510 kts | 81° |
| 2026-05-09 19:16 | 49.49996 | -52.00112 | 35062 ft | 510 kts | 80° |
| 2026-05-09 19:16 | 49.52627 | -51.89964 | 35063 ft | 510 kts | 80° |
| 2026-05-09 19:17 | 49.55249 | -51.79846 | 35072 ft | 510 kts | 80° |
| 2026-05-09 19:17 | 49.57861 | -51.69729 | 35073 ft | 510 kts | 81° |
| 2026-05-09 19:18 | 49.60489 | -51.59504 | 35059 ft | 510 kts | 81° |
| 2026-05-09 19:18 | 49.63077 | -51.49392 | 35059 ft | 510 kts | 81° |
| 2026-05-09 19:19 | 49.65675 | -51.39200 | 35069 ft | 510 kts | 81° |
| 2026-05-09 19:19 | 49.68262 | -51.29018 | 35083 ft | 508 kts | 81° |
| 2026-05-09 19:20 | 49.70832 | -51.18836 | 35095 ft | 509 kts | 81° |
| 2026-05-09 19:20 | 49.73399 | -51.08627 | 35095 ft | 510 kts | 81° |
| 2026-05-09 19:21 | 49.75960 | -50.98396 | 35096 ft | 510 kts | 81° |
| 2026-05-09 19:21 | 49.78520 | -50.88126 | 35097 ft | 510 kts | 81° |
| 2026-05-09 19:22 | 49.81064 | -50.77868 | 35098 ft | 511 kts | 81° |
| 2026-05-09 19:22 | 49.83581 | -50.67674 | 35098 ft | 512 kts | 81° |
| 2026-05-09 19:23 | 49.86115 | -50.57359 | 35098 ft | 512 kts | 81° |
| 2026-05-09 19:23 | 49.88650 | -50.47001 | 35098 ft | 512 kts | 81° |
| 2026-05-09 19:24 | 49.91161 | -50.36692 | 35097 ft | 512 kts | 81° |
| 2026-05-09 19:24 | 49.93651 | -50.26422 | 35097 ft | 511 kts | 82° |
| 2026-05-09 19:25 | 49.96146 | -50.16073 | 35095 ft | 512 kts | 82° |
| 2026-05-09 19:25 | 49.98631 | -50.05723 | 35096 ft | 512 kts | 82° |
| 2026-05-09 19:26 | 50.00655 | -49.95357 | 35095 ft | 498 kts | 90° |
| 2026-05-09 19:26 | 50.02185 | -49.84881 | 35095 ft | 497 kts | 90° |
| 2026-05-09 19:27 | 50.03696 | -49.74394 | 35094 ft | 497 kts | 90° |
| 2026-05-09 19:27 | 50.05184 | -49.63994 | 35094 ft | 497 kts | 90° |
| 2026-05-09 19:28 | 50.06672 | -49.53506 | 35094 ft | 497 kts | 90° |
| 2026-05-09 19:28 | 50.08146 | -49.43045 | 35094 ft | 497 kts | 90° |
| 2026-05-09 19:29 | 50.09618 | -49.32525 | 35094 ft | 497 kts | 90° |
| 2026-05-09 19:29 | 50.11071 | -49.22068 | 35064 ft | 496 kts | 90° |
| 2026-05-09 19:30 | 50.12531 | -49.11470 | 35060 ft | 498 kts | 90° |
| 2026-05-09 19:30 | 50.13976 | -49.00913 | 35061 ft | 499 kts | 90° |
| 2026-05-09 19:31 | 50.15413 | -48.90341 | 35064 ft | 499 kts | 90° |
| 2026-05-09 19:31 | 50.16839 | -48.79773 | 35065 ft | 500 kts | 89° |
| 2026-05-09 19:32 | 50.18267 | -48.69109 | 35063 ft | 501 kts | 89° |
| 2026-05-09 19:32 | 50.19681 | -48.58475 | 35060 ft | 501 kts | 89° |
| 2026-05-09 19:33 | 50.21091 | -48.47783 | 35058 ft | 502 kts | 89° |
| 2026-05-09 19:33 | 50.22483 | -48.37156 | 35059 ft | 502 kts | 89° |
| 2026-05-09 19:34 | 50.23873 | -48.26463 | 35056 ft | 502 kts | 89° |
| 2026-05-09 19:34 | 50.25250 | -48.15780 | 35055 ft | 503 kts | 89° |
| 2026-05-09 19:35 | 50.26620 | -48.05078 | 35054 ft | 503 kts | 89° |
| 2026-05-09 19:35 | 50.27982 | -47.94351 | 35054 ft | 504 kts | 89° |
| 2026-05-09 19:36 | 50.29335 | -47.83615 | 35054 ft | 504 kts | 89° |
| 2026-05-09 19:36 | 50.30678 | -47.72875 | 35054 ft | 504 kts | 89° |
| 2026-05-09 19:37 | 50.32009 | -47.62139 | 35053 ft | 504 kts | 89° |
| 2026-05-09 19:37 | 50.33322 | -47.51468 | 35054 ft | 503 kts | 89° |
| 2026-05-09 19:38 | 50.34634 | -47.40715 | 35053 ft | 503 kts | 89° |
| 2026-05-09 19:38 | 50.35934 | -47.29984 | 35051 ft | 502 kts | 89° |
| 2026-05-09 19:39 | 50.37215 | -47.19300 | 35050 ft | 503 kts | 89° |
| 2026-05-09 19:39 | 50.38501 | -47.08501 | 35051 ft | 503 kts | 89° |
| 2026-05-09 19:40 | 50.39771 | -46.97752 | 35052 ft | 503 kts | 89° |
| 2026-05-09 19:40 | 50.41032 | -46.86983 | 35052 ft | 502 kts | 89° |
| 2026-05-09 19:41 | 50.42276 | -46.76274 | 35053 ft | 502 kts | 88° |
| 2026-05-09 19:41 | 50.43516 | -46.65498 | 35053 ft | 502 kts | 88° |
| 2026-05-09 19:42 | 50.44746 | -46.54726 | 35054 ft | 502 kts | 88° |
| 2026-05-09 19:42 | 50.45956 | -46.44024 | 35055 ft | 502 kts | 88° |
| 2026-05-09 19:43 | 50.47172 | -46.33191 | 35055 ft | 502 kts | 88° |
| 2026-05-09 19:43 | 50.48368 | -46.22444 | 35054 ft | 501 kts | 88° |
| 2026-05-09 19:44 | 50.49544 | -46.11775 | 35054 ft | 501 kts | 88° |
| 2026-05-09 19:44 | 50.50725 | -46.00963 | 35055 ft | 501 kts | 88° |
| 2026-05-09 19:45 | 50.51892 | -45.90189 | 35054 ft | 501 kts | 88° |
| 2026-05-09 19:45 | 50.53053 | -45.79369 | 35052 ft | 501 kts | 88° |
| 2026-05-09 19:46 | 50.54202 | -45.68561 | 35048 ft | 500 kts | 88° |
| 2026-05-09 19:46 | 50.55337 | -45.57791 | 35048 ft | 500 kts | 88° |
| 2026-05-09 19:47 | 50.56454 | -45.47086 | 35055 ft | 500 kts | 87° |
| 2026-05-09 19:47 | 50.57573 | -45.36265 | 35060 ft | 500 kts | 87° |
| 2026-05-09 19:48 | 50.58682 | -45.25449 | 35073 ft | 499 kts | 88° |
| 2026-05-09 19:48 | 50.59772 | -45.14704 | 35097 ft | 498 kts | 88° |
| 2026-05-09 19:49 | 50.60851 | -45.03970 | 35107 ft | 498 kts | 88° |
| 2026-05-09 19:49 | 50.61916 | -44.93268 | 35106 ft | 498 kts | 87° |
| 2026-05-09 19:50 | 50.62978 | -44.82495 | 35101 ft | 497 kts | 87° |
| 2026-05-09 19:50 | 50.64021 | -44.71810 | 35098 ft | 497 kts | 87° |
| 2026-05-09 19:51 | 50.65062 | -44.61042 | 35098 ft | 497 kts | 87° |
| 2026-05-09 19:51 | 50.66092 | -44.50283 | 35098 ft | 497 kts | 86° |
| 2026-05-09 19:52 | 50.67103 | -44.39600 | 35099 ft | 497 kts | 86° |
| 2026-05-09 19:52 | 50.68111 | -44.28854 | 35098 ft | 495 kts | 87° |
| 2026-05-09 19:53 | 50.69107 | -44.18125 | 35098 ft | 496 kts | 87° |
| 2026-05-09 19:53 | 50.70087 | -44.07446 | 35098 ft | 496 kts | 87° |
| 2026-05-09 19:54 | 50.71063 | -43.96713 | 35099 ft | 496 kts | 87° |
| 2026-05-09 19:54 | 50.72031 | -43.85946 | 35099 ft | 495 kts | 87° |
| 2026-05-09 19:55 | 50.72982 | -43.75259 | 35097 ft | 495 kts | 86° |
| 2026-05-09 19:56 | 50.74396 | -43.59163 | 35101 ft | 494 kts | 86° |
| 2026-05-09 19:56 | 50.75324 | -43.48429 | 35102 ft | 494 kts | 86° |
| 2026-05-09 19:57 | 50.76242 | -43.37720 | 35101 ft | 494 kts | 86° |
| 2026-05-09 19:57 | 50.77156 | -43.26930 | 35099 ft | 493 kts | 86° |
| 2026-05-09 19:58 | 50.78052 | -43.16237 | 35099 ft | 493 kts | 86° |
| 2026-05-09 19:58 | 50.78938 | -43.05544 | 35099 ft | 493 kts | 86° |
| 2026-05-09 19:59 | 50.79814 | -42.94839 | 35100 ft | 493 kts | 86° |
| 2026-05-09 19:59 | 50.80679 | -42.84161 | 35100 ft | 493 kts | 86° |
| 2026-05-09 20:00 | 50.81540 | -42.73393 | 35100 ft | 493 kts | 86° |
| 2026-05-09 20:00 | 50.82385 | -42.62700 | 35100 ft | 493 kts | 86° |
| 2026-05-09 20:01 | 50.83226 | -42.51928 | 35101 ft | 492 kts | 86° |
| 2026-05-09 20:01 | 50.84056 | -42.41166 | 35101 ft | 492 kts | 86° |
| 2026-05-09 20:02 | 50.84874 | -42.30438 | 35100 ft | 491 kts | 86° |
| 2026-05-09 20:02 | 50.85679 | -42.19741 | 35100 ft | 491 kts | 86° |
| 2026-05-09 20:03 | 50.86868 | -42.03697 | 35100 ft | 491 kts | 86° |
| 2026-05-09 20:03 | 50.87651 | -41.92954 | 35101 ft | 491 kts | 86° |
| 2026-05-09 20:04 | 50.88426 | -41.82176 | 35101 ft | 491 kts | 86° |
| 2026-05-09 20:04 | 50.89186 | -41.71473 | 35101 ft | 490 kts | 85° |